Time;durP1;ratioP1;P1;durP2;ratioP2;P2;SDS_P1;SDS_P2;PMS_P1;PMS_P2;Temp;Humidity;BMP_temperature;BMP_pressure;BME280_temperature;BME280_humidity;BME280_pressure;Samples;Min_cycle;Max_cycle;Signal;HPM_P1;HPM_P2
2022/05/11 00:01:40;;;;;;;12.60;4.90;;;13.90;99.90;;;;;;4982120;28;20062;-73
2022/05/11 00:04:07;;;;;;;9.30;5.30;;;13.90;99.90;;;;;;4967125;28;20031;-73
2022/05/11 00:06:33;;;;;;;7.75;4.80;;;13.90;99.90;;;;;;4967853;28;20042;-73
2022/05/11 00:08:59;;;;;;;6.70;4.00;;;14.00;99.90;;;;;;4966496;28;20780;-74
2022/05/11 00:11:27;;;;;;;11.52;4.80;;;13.90;99.90;;;;;;4966695;28;20042;-72
2022/05/11 00:13:54;;;;;;;6.07;4.20;;;14.00;99.90;;;;;;4951488;28;20102;-73
2022/05/11 00:16:20;;;;;;;9.95;4.25;;;14.00;99.90;;;;;;4969898;28;20513;-72
2022/05/11 00:18:46;;;;;;;9.25;4.38;;;14.00;99.90;;;;;;4934940;28;20553;-72
2022/05/11 00:21:12;;;;;;;10.75;4.30;;;14.00;99.90;;;;;;4963664;28;20050;-72
2022/05/11 00:23:38;;;;;;;8.15;4.28;;;14.10;99.90;;;;;;4963974;28;20050;-72
2022/05/11 00:26:04;;;;;;;8.93;4.60;;;14.10;99.90;;;;;;4962901;28;20047;-72
2022/05/11 00:28:29;;;;;;;6.65;4.85;;;14.10;99.90;;;;;;4965462;28;20034;-72
2022/05/11 00:30:55;;;;;;;9.75;4.47;;;14.10;99.90;;;;;;4962635;28;20050;-72
2022/05/11 00:33:21;;;;;;;9.07;4.20;;;14.10;99.90;;;;;;4963889;28;20046;-72
2022/05/11 00:35:49;;;;;;;8.82;4.72;;;14.10;99.90;;;;;;4967617;28;20576;-72
2022/05/11 00:38:17;;;;;;;6.78;4.35;;;14.20;99.90;;;;;;4984069;28;20379;-72
2022/05/11 00:40:46;;;;;;;9.55;4.90;;;14.10;99.90;;;;;;4982509;28;20437;-72
2022/05/11 00:43:12;;;;;;;9.95;4.72;;;14.10;99.90;;;;;;4980621;28;20050;-72
2022/05/11 00:45:48;;;;;;;8.60;4.68;;;14.20;99.90;;;;;;4966916;28;20449;-72
2022/05/11 00:51:05;;;;;;;7.65;4.55;;;14.20;99.90;;;;;;4968388;28;20453;-72
2022/05/11 00:53:34;;;;;;;8.75;4.70;;;14.10;99.90;;;;;;4965900;28;20038;-72
2022/05/11 00:56:01;;;;;;;8.60;4.80;;;14.10;99.90;;;;;;4965650;28;20433;-72
2022/05/11 00:58:38;;;;;;;7.57;4.50;;;14.10;99.90;;;;;;4964671;28;20528;-72
2022/05/11 01:01:04;;;;;;;10.48;4.53;;;14.10;99.90;;;;;;4965108;28;20053;-73
2022/05/11 01:03:39;;;;;;;7.45;4.53;;;14.10;99.90;;;;;;4967415;28;20042;-72
2022/05/11 01:06:07;;;;;;;12.95;4.80;;;14.10;99.90;;;;;;4963169;28;20046;-74
2022/05/11 01:08:33;;;;;;;9.85;4.68;;;14.10;99.90;;;;;;4962876;28;22080;-75
2022/05/11 01:11:05;;;;;;;7.93;4.57;;;14.10;99.90;;;;;;4966579;28;20046;-74
2022/05/11 01:13:32;;;;;;;9.73;4.82;;;14.00;99.90;;;;;;4963311;28;20388;-73
2022/05/11 01:15:59;;;;;;;10.82;5.00;;;14.10;99.90;;;;;;4982695;28;20046;-75
2022/05/11 01:18:25;;;;;;;8.50;4.90;;;14.10;99.90;;;;;;4964151;28;20042;-73
2022/05/11 01:20:52;;;;;;;6.95;4.90;;;14.10;99.90;;;;;;4962724;28;22057;-73
2022/05/11 01:23:27;;;;;;;9.32;4.35;;;14.10;99.90;;;;;;4950454;28;20042;-73
2022/05/11 01:25:54;;;;;;;8.50;5.10;;;14.10;99.90;;;;;;4963761;28;20190;-73
2022/05/11 01:28:20;;;;;;;9.68;5.15;;;14.00;99.90;;;;;;4966192;28;20065;-73
2022/05/11 01:30:49;;;;;;;11.52;5.22;;;14.00;99.90;;;;;;4963351;28;20046;-75
2022/05/11 01:33:22;;;;;;;8.32;5.20;;;14.00;99.90;;;;;;4981195;28;20046;-73
2022/05/11 01:36:27;;;;;;;8.57;5.28;;;14.00;99.90;;;;;;4969687;28;20046;-74
2022/05/11 01:39:02;;;;;;;7.47;5.10;;;14.00;99.90;;;;;;4963079;28;20051;-72
2022/05/11 01:41:43;;;;;;;10.00;4.88;;;14.00;99.90;;;;;;4973107;28;20057;-72
2022/05/11 01:44:16;;;;;;;6.88;5.10;;;14.00;99.90;;;;;;4984551;28;20038;-72
2022/05/11 01:46:48;;;;;;;7.25;4.63;;;14.00;99.90;;;;;;4970113;28;20105;-72
2022/05/11 01:49:14;;;;;;;6.88;5.20;;;14.00;99.90;;;;;;4972514;28;20034;-72
2022/05/11 01:51:40;;;;;;;6.93;4.72;;;14.00;99.90;;;;;;4966940;28;20038;-72
2022/05/11 01:54:06;;;;;;;8.07;4.70;;;14.00;99.90;;;;;;4974800;28;20054;-72
2022/05/11 01:56:32;;;;;;;10.43;5.22;;;14.00;99.90;;;;;;4973191;28;20405;-72
2022/05/11 01:58:59;;;;;;;7.78;4.82;;;14.00;99.90;;;;;;4972341;28;20039;-72
2022/05/11 02:01:27;;;;;;;7.85;5.07;;;14.00;99.90;;;;;;4966512;28;20047;-72
2022/05/11 02:03:53;;;;;;;8.88;5.10;;;14.00;99.90;;;;;;4962994;28;20046;-72
2022/05/11 02:09:04;;;;;;;8.55;5.10;;;14.00;99.90;;;;;;4971535;28;20039;-72
2022/05/11 02:11:30;;;;;;;10.38;5.07;;;14.10;99.90;;;;;;4971601;28;20134;-72
2022/05/11 02:13:59;;;;;;;6.60;5.13;;;14.00;99.90;;;;;;4953738;28;20086;-72
2022/05/11 02:16:25;;;;;;;9.02;4.97;;;14.10;99.90;;;;;;4973301;28;20066;-72
2022/05/11 02:18:52;;;;;;;9.35;4.85;;;14.10;99.90;;;;;;4974083;28;20401;-72
2022/05/11 02:21:18;;;;;;;11.60;5.25;;;14.10;99.90;;;;;;4971543;28;20053;-72
2022/05/11 02:23:43;;;;;;;8.65;4.47;;;14.10;99.90;;;;;;4971932;28;20409;-72
2022/05/11 02:26:11;;;;;;;7.82;4.65;;;14.20;99.90;;;;;;4972020;28;20031;-72
2022/05/11 02:28:37;;;;;;;7.72;4.85;;;14.20;99.90;;;;;;4971662;28;20046;-72
2022/05/11 02:31:04;;;;;;;9.05;4.90;;;14.20;99.90;;;;;;4971522;28;20039;-73
2022/05/11 02:33:30;;;;;;;8.10;4.72;;;14.20;99.90;;;;;;4975736;28;20448;-74
2022/05/11 02:35:56;;;;;;;10.50;4.45;;;14.20;99.90;;;;;;4969843;28;20055;-73
2022/05/11 02:38:26;;;;;;;6.72;4.43;;;14.20;99.90;;;;;;4970835;28;20405;-74
2022/05/11 02:40:53;;;;;;;6.85;4.30;;;14.20;99.90;;;;;;4955172;28;20421;-73
2022/05/11 02:43:19;;;;;;;7.53;4.38;;;14.20;99.90;;;;;;5010783;23;20078;-72
2022/05/11 02:45:46;;;;;;;8.13;4.10;;;14.20;99.90;;;;;;4971856;28;20047;-72
2022/05/11 02:48:16;;;;;;;5.65;3.95;;;14.20;99.90;;;;;;4972058;28;20058;-73
2022/05/11 02:50:52;;;;;;;8.32;4.55;;;14.20;99.90;;;;;;4972686;28;20043;-73
2022/05/11 02:53:18;;;;;;;7.90;4.13;;;14.10;99.90;;;;;;4967955;28;20049;-73
2022/05/11 02:55:47;;;;;;;9.45;4.15;;;14.20;99.90;;;;;;4970228;28;20047;-73
2022/05/11 02:58:14;;;;;;;8.55;4.68;;;14.20;99.90;;;;;;4969812;28;20042;-73
2022/05/11 03:00:44;;;;;;;8.80;4.47;;;14.20;99.90;;;;;;4971949;28;20074;-73
2022/05/11 03:03:11;;;;;;;8.25;4.13;;;14.20;99.90;;;;;;4970879;28;20042;-72
2022/05/11 03:05:38;;;;;;;7.15;4.28;;;14.20;99.90;;;;;;4970468;28;20051;-73
2022/05/11 03:08:05;;;;;;;8.10;4.47;;;14.20;99.90;;;;;;4971367;28;20038;-73
2022/05/11 03:10:31;;;;;;;8.40;4.47;;;14.10;99.90;;;;;;4968883;28;20045;-73
2022/05/11 03:12:57;;;;;;;8.73;4.40;;;14.20;99.90;;;;;;4966859;28;20046;-73
2022/05/11 03:15:23;;;;;;;6.50;3.92;;;14.10;99.90;;;;;;4962882;28;20074;-73
2022/05/11 03:17:49;;;;;;;7.70;4.03;;;14.10;99.90;;;;;;4972586;28;20109;-73
2022/05/11 03:20:15;;;;;;;8.15;4.07;;;14.10;99.90;;;;;;4971493;28;20066;-73
2022/05/11 03:22:41;;;;;;;6.57;3.72;;;14.10;99.90;;;;;;4970191;28;20109;-73
2022/05/11 03:25:08;;;;;;;10.48;4.55;;;14.10;99.90;;;;;;4966250;28;20078;-73
2022/05/11 03:27:34;;;;;;;6.95;4.32;;;14.10;99.90;;;;;;4971071;28;20034;-73
2022/05/11 03:29:59;;;;;;;14.02;4.40;;;14.10;99.90;;;;;;4967423;28;20549;-73
2022/05/11 03:35:10;;;;;;;6.72;4.38;;;14.10;99.90;;;;;;4970158;28;20039;-73
2022/05/11 03:37:38;;;;;;;9.75;4.63;;;14.10;99.90;;;;;;4971465;28;20505;-73
2022/05/11 03:40:07;;;;;;;11.40;5.00;;;14.10;99.90;;;;;;4969928;28;20051;-73
2022/05/11 03:42:33;;;;;;;8.60;4.32;;;14.10;99.90;;;;;;4953876;28;20043;-73
2022/05/11 03:45:12;;;;;;;7.75;4.78;;;14.00;99.90;;;;;;4970652;28;20038;-73
2022/05/11 03:47:38;;;;;;;8.55;4.57;;;14.10;99.90;;;;;;4969086;28;20043;-73
2022/05/11 03:50:05;;;;;;;9.88;4.80;;;14.00;99.90;;;;;;4969773;28;20088;-73
2022/05/11 03:52:31;;;;;;;9.10;4.80;;;14.10;99.90;;;;;;4968891;28;20066;-73
2022/05/11 03:54:57;;;;;;;10.73;5.07;;;14.10;99.90;;;;;;4972660;28;20497;-72
2022/05/11 03:57:22;;;;;;;8.63;4.65;;;14.10;99.90;;;;;;4972074;28;20031;-73
2022/05/11 03:59:48;;;;;;;9.65;5.35;;;14.10;99.90;;;;;;4970741;28;20078;-73
2022/05/11 04:02:13;;;;;;;7.57;4.80;;;14.20;99.90;;;;;;4970860;28;20625;-73
2022/05/11 04:04:39;;;;;;;7.82;4.63;;;14.10;99.90;;;;;;4970250;28;20520;-73
2022/05/11 04:07:05;;;;;;;11.77;5.55;;;14.10;99.90;;;;;;4970852;28;20046;-73
2022/05/11 04:09:30;;;;;;;8.80;5.03;;;14.00;99.90;;;;;;4968620;28;20039;-73
2022/05/11 04:11:57;;;;;;;8.98;5.32;;;14.00;99.90;;;;;;4968980;28;20038;-73
2022/05/11 04:14:22;;;;;;;11.13;5.00;;;14.00;99.90;;;;;;4967160;28;20117;-73
2022/05/11 04:16:54;;;;;;;9.23;5.32;;;14.10;99.90;;;;;;4971008;28;20091;-73
2022/05/11 04:19:20;;;;;;;8.82;4.53;;;14.10;99.90;;;;;;4983098;28;20035;-73
2022/05/11 04:21:45;;;;;;;7.93;4.97;;;14.10;99.90;;;;;;4969782;28;20489;-73
2022/05/11 04:24:11;;;;;;;8.25;5.05;;;14.10;99.90;;;;;;4970807;28;20489;-73
2022/05/11 04:26:37;;;;;;;12.20;5.10;;;14.10;99.90;;;;;;4954734;28;20517;-73
2022/05/11 04:29:02;;;;;;;16.38;5.15;;;14.10;99.90;;;;;;4973023;28;20568;-73
2022/05/11 04:31:28;;;;;;;13.32;5.57;;;14.10;99.90;;;;;;4974947;28;20045;-73
2022/05/11 04:33:54;;;;;;;10.05;5.60;;;14.10;99.90;;;;;;4974030;28;20053;-73
2022/05/11 04:36:21;;;;;;;8.77;5.20;;;14.10;99.90;;;;;;4974227;28;20061;-73
2022/05/11 04:38:46;;;;;;;10.48;5.43;;;14.10;99.90;;;;;;4965924;28;20575;-73
2022/05/11 04:41:12;;;;;;;9.20;4.70;;;14.10;99.90;;;;;;4973515;28;20126;-73
2022/05/11 04:43:38;;;;;;;9.30;5.30;;;14.10;99.90;;;;;;4975014;28;20031;-73
2022/05/11 04:46:03;;;;;;;11.65;5.07;;;14.10;99.90;;;;;;4973798;28;20026;-73
2022/05/11 04:48:29;;;;;;;10.40;5.18;;;14.10;99.90;;;;;;4974875;28;20151;-72
2022/05/11 04:51:00;;;;;;;9.55;5.20;;;14.10;99.90;;;;;;4972742;28;20085;-73
2022/05/11 04:53:26;;;;;;;18.52;6.05;;;14.20;99.90;;;;;;4973683;28;20039;-73
2022/05/11 04:55:52;;;;;;;12.52;5.35;;;14.20;99.90;;;;;;4972718;28;20082;-73
2022/05/11 04:58:17;;;;;;;13.77;5.68;;;14.20;99.90;;;;;;4974942;28;20067;-72
2022/05/11 05:00:43;;;;;;;10.18;5.15;;;14.20;99.90;;;;;;4974695;28;20634;-72
2022/05/11 05:03:11;;;;;;;12.40;5.57;;;14.30;99.90;;;;;;4974686;28;20105;-72
2022/05/11 05:05:37;;;;;;;12.38;5.35;;;14.30;99.90;;;;;;4975273;28;20393;-72
2022/05/11 05:08:03;;;;;;;12.75;5.68;;;14.30;99.90;;;;;;4976680;28;20452;-72
2022/05/11 05:10:29;;;;;;;10.43;5.75;;;14.30;99.90;;;;;;4971220;28;20043;-72
2022/05/11 05:12:55;;;;;;;12.80;5.97;;;14.40;99.90;;;;;;4965915;28;20371;-72
2022/05/11 05:15:21;;;;;;;10.75;5.75;;;14.30;99.90;;;;;;4975457;28;20046;-73
2022/05/11 05:17:51;;;;;;;12.32;5.72;;;14.40;99.90;;;;;;4971898;28;20539;-73
2022/05/11 05:20:18;;;;;;;14.07;6.03;;;14.40;99.90;;;;;;4976260;28;20050;-72
2022/05/11 05:22:43;;;;;;;12.50;5.60;;;14.50;99.90;;;;;;4976443;28;20057;-72
2022/05/11 05:25:10;;;;;;;11.15;5.82;;;14.50;99.90;;;;;;4976388;28;20489;-72
2022/05/11 05:27:36;;;;;;;10.52;5.90;;;14.50;99.90;;;;;;4976384;28;20045;-72
2022/05/11 05:32:46;;;;;;;10.38;5.78;;;14.60;99.90;;;;;;4974871;28;20062;-72
2022/05/11 05:35:16;;;;;;;10.45;5.82;;;14.70;99.90;;;;;;4975748;28;20085;-72
2022/05/11 05:37:43;;;;;;;12.10;5.95;;;14.70;99.90;;;;;;4974482;28;20089;-72
2022/05/11 05:40:09;;;;;;;10.70;5.82;;;14.70;99.90;;;;;;4945819;28;20484;-72
2022/05/11 05:42:35;;;;;;;12.38;5.38;;;14.80;99.90;;;;;;4975187;28;20731;-72
2022/05/11 05:45:01;;;;;;;11.40;5.35;;;14.90;99.90;;;;;;4974914;28;20399;-72
2022/05/11 05:47:27;;;;;;;10.23;5.05;;;15.00;99.90;;;;;;4975029;28;20413;-72
2022/05/11 05:49:53;;;;;;;10.77;5.78;;;15.00;99.90;;;;;;4973530;28;20046;-72
2022/05/11 05:52:21;;;;;;;8.27;5.15;;;15.10;99.90;;;;;;4957609;28;20031;-72
2022/05/11 05:54:48;;;;;;;9.02;5.00;;;15.10;99.90;;;;;;4972874;28;20118;-72
2022/05/11 05:57:14;;;;;;;10.10;4.78;;;15.10;99.90;;;;;;4971864;28;20681;-72
2022/05/11 05:59:40;;;;;;;13.20;5.18;;;15.20;99.90;;;;;;4969548;28;20401;-70
2022/05/11 06:02:13;;;;;;;8.95;4.75;;;15.20;99.90;;;;;;4972463;28;20061;-72
2022/05/11 06:04:46;;;;;;;8.57;4.60;;;15.20;99.90;;;;;;4971989;28;20521;-71
2022/05/11 06:07:13;;;;;;;14.93;5.60;;;15.20;99.90;;;;;;4972336;28;20105;-71
2022/05/11 06:09:39;;;;;;;10.95;4.70;;;15.20;99.90;;;;;;4971791;28;20389;-71
2022/05/11 06:12:11;;;;;;;8.98;4.28;;;15.20;99.90;;;;;;4972563;28;20495;-71
2022/05/11 06:14:38;;;;;;;12.52;4.28;;;15.30;99.90;;;;;;4986221;28;20046;-72
2022/05/11 06:17:11;;;;;;;9.43;4.13;;;15.30;99.90;;;;;;4968680;28;20493;-72
2022/05/11 06:19:38;;;;;;;10.07;4.63;;;15.30;99.90;;;;;;4968540;28;20528;-71
2022/05/11 06:22:04;;;;;;;6.63;4.05;;;15.30;99.90;;;;;;4969211;28;21650;-72
2022/05/11 06:24:30;;;;;;;11.48;4.25;;;15.30;99.90;;;;;;4971253;28;20046;-71
2022/05/11 06:26:56;;;;;;;10.73;3.92;;;15.40;99.90;;;;;;4971496;28;20708;-72
2022/05/11 06:29:22;;;;;;;9.48;3.95;;;15.50;99.90;;;;;;4961216;28;20050;-72
2022/05/11 06:31:48;;;;;;;9.75;3.83;;;15.50;99.90;;;;;;4971501;28;20061;-71
2022/05/11 06:34:15;;;;;;;9.90;4.20;;;15.50;99.90;;;;;;4972821;28;20074;-71
2022/05/11 06:36:42;;;;;;;11.52;4.10;;;15.50;99.90;;;;;;4970767;28;20051;-71
2022/05/11 06:39:08;;;;;;;9.13;4.18;;;15.50;99.90;;;;;;4963746;28;20433;-72
2022/05/11 06:41:34;;;;;;;10.75;4.07;;;15.60;99.90;;;;;;4970136;28;20035;-71
2022/05/11 06:44:00;;;;;;;7.82;3.67;;;15.70;99.90;;;;;;4972507;28;20503;-72
2022/05/11 06:46:26;;;;;;;8.75;3.53;;;15.80;99.90;;;;;;4971341;28;20045;-71
2022/05/11 06:48:52;;;;;;;9.23;2.95;;;15.80;99.90;;;;;;4969410;28;20078;-72
2022/05/11 06:51:19;;;;;;;9.48;3.33;;;15.80;99.90;;;;;;4969679;28;20046;-72
2022/05/11 06:59:26;;;;;;;12.93;3.80;;;16.00;99.90;;;;;;4968464;28;20125;-72
2022/05/11 07:02:02;;;;;;;8.48;3.28;;;16.00;99.90;;;;;;4970554;28;20130;-71
2022/05/11 07:04:28;;;;;;;11.10;2.95;;;15.90;99.90;;;;;;4968793;28;20045;-72
2022/05/11 07:06:56;;;;;;;11.80;3.47;;;15.90;99.90;;;;;;4967252;28;20047;-71
2022/05/11 07:09:24;;;;;;;9.57;3.08;;;15.80;99.90;;;;;;4968486;28;20046;-72
2022/05/11 07:14:35;;;;;;;7.40;2.72;;;15.90;99.90;;;;;;4967708;28;20158;-72
2022/05/11 07:17:01;;;;;;;14.50;3.10;;;15.90;99.90;;;;;;4970070;28;20485;-72
2022/05/11 07:19:27;;;;;;;11.45;2.97;;;16.00;99.90;;;;;;4967481;28;20035;-71
2022/05/11 07:21:54;;;;;;;10.00;2.75;;;16.10;99.90;;;;;;4967429;28;20077;-72
2022/05/11 07:24:20;;;;;;;6.70;2.60;;;16.10;99.90;;;;;;4949728;28;20393;-72
2022/05/11 07:26:46;;;;;;;7.60;2.58;;;16.10;99.90;;;;;;4970703;28;20043;-72
2022/05/11 07:29:12;;;;;;;14.05;2.97;;;16.20;99.90;;;;;;4969926;28;20066;-72
2022/05/11 07:31:38;;;;;;;7.72;2.20;;;16.30;99.90;;;;;;4968702;28;20572;-72
2022/05/11 07:34:05;;;;;;;9.60;2.60;;;16.30;99.90;;;;;;4969677;28;20045;-72
2022/05/11 07:36:30;;;;;;;8.52;2.42;;;16.40;99.90;;;;;;4970176;28;20176;-71
2022/05/11 07:38:56;;;;;;;5.30;2.17;;;16.30;99.90;;;;;;4967645;28;20157;-71
2022/05/11 07:41:22;;;;;;;11.77;2.80;;;16.40;99.90;;;;;;4968896;28;20089;-71
2022/05/11 07:43:47;;;;;;;7.30;2.42;;;16.40;99.90;;;;;;4969171;28;20121;-72
2022/05/11 07:46:13;;;;;;;8.75;2.60;;;16.50;99.90;;;;;;4969918;28;20039;-72
2022/05/11 07:48:39;;;;;;;7.70;2.50;;;16.70;99.90;;;;;;4968926;28;20042;-71
2022/05/11 07:51:04;;;;;;;8.77;2.50;;;16.80;99.90;;;;;;4970923;28;20054;-72
2022/05/11 07:53:31;;;;;;;10.65;2.40;;;16.80;99.90;;;;;;4967315;28;20050;-72
2022/05/11 08:01:25;;;;;;;7.13;2.30;;;17.10;99.90;;;;;;4964507;28;20039;-72
2022/05/11 08:03:50;;;;;;;13.85;2.50;;;17.20;99.90;;;;;;4983317;28;20038;-72
2022/05/11 08:06:18;;;;;;;12.68;2.10;;;17.30;99.90;;;;;;4971411;28;20092;-72
2022/05/11 08:08:45;;;;;;;9.00;2.25;;;17.50;99.90;;;;;;4991306;28;20541;-71
2022/05/11 08:11:10;;;;;;;10.00;2.05;;;17.60;97.70;;;;;;4968960;28;20046;-72
2022/05/11 08:13:36;;;;;;;14.80;2.35;;;17.70;99.10;;;;;;4977159;28;20052;-71
2022/05/11 08:16:03;;;;;;;9.68;2.30;;;17.80;99.90;;;;;;4970010;28;20399;-72
2022/05/11 08:18:28;;;;;;;7.00;2.17;;;17.90;97.50;;;;;;4963446;28;20058;-72
2022/05/11 08:20:54;;;;;;;9.30;2.10;;;18.00;98.30;;;;;;4971578;28;20046;-71
2022/05/11 08:23:21;;;;;;;7.57;1.85;;;18.10;98.00;;;;;;4969763;28;20138;-72
2022/05/11 08:25:49;;;;;;;10.85;2.20;;;18.30;97.80;;;;;;4970406;28;20046;-72
2022/05/11 08:28:20;;;;;;;7.57;2.08;;;18.40;96.30;;;;;;4971192;28;20034;-72
2022/05/11 08:33:37;;;;;;;7.35;2.15;;;18.60;95.10;;;;;;4980041;28;20509;-72
2022/05/11 08:36:07;;;;;;;10.60;2.03;;;18.60;91.00;;;;;;4971291;28;20728;-72
2022/05/11 08:38:37;;;;;;;10.93;2.45;;;18.60;93.30;;;;;;4970486;28;20520;-72
2022/05/11 08:41:18;;;;;;;9.98;2.30;;;18.40;91.40;;;;;;4966047;28;20823;-72
2022/05/11 08:43:45;;;;;;;9.05;2.30;;;18.70;93.50;;;;;;4972524;28;20485;-72
2022/05/11 08:46:38;;;;;;;7.70;2.33;;;18.60;91.40;;;;;;4974291;28;20497;-72
2022/05/11 08:49:05;;;;;;;5.97;1.85;;;19.00;93.20;;;;;;4972191;28;20035;-72
2022/05/11 08:51:37;;;;;;;9.43;2.20;;;19.30;91.20;;;;;;4971331;28;20166;-72
2022/05/11 08:54:19;;;;;;;8.52;2.33;;;19.40;87.80;;;;;;4964883;28;20557;-73
2022/05/11 08:56:47;;;;;;;19.63;2.67;;;19.50;86.90;;;;;;4972599;28;20440;-72
2022/05/11 08:59:21;;;;;;;10.75;2.25;;;19.50;90.60;;;;;;4969053;28;20485;-72
2022/05/11 09:01:58;;;;;;;13.90;2.38;;;19.60;90.10;;;;;;4969555;28;20456;-72
2022/05/11 09:04:36;;;;;;;11.27;2.42;;;19.60;84.10;;;;;;4970783;28;20401;-72
2022/05/11 09:07:03;;;;;;;11.93;2.38;;;19.30;84.20;;;;;;4968824;28;20034;-72
2022/05/11 09:09:29;;;;;;;8.63;2.05;;;19.10;87.60;;;;;;4969067;28;20440;-73
2022/05/11 09:11:55;;;;;;;9.48;2.28;;;19.30;91.10;;;;;;4974100;28;20038;-73
2022/05/11 09:14:35;;;;;;;9.52;1.90;;;19.30;85.50;;;;;;4966468;28;20046;-73
2022/05/11 09:17:01;;;;;;;8.57;2.17;;;19.40;84.70;;;;;;4974418;28;20437;-73
2022/05/11 09:19:32;;;;;;;8.57;2.10;;;19.50;87.50;;;;;;4972648;28;20077;-72
2022/05/11 09:22:14;;;;;;;9.07;1.87;;;19.50;90.40;;;;;;4972819;28;20065;-72
2022/05/11 09:24:46;;;;;;;8.93;2.30;;;19.70;88.00;;;;;;4970324;28;20030;-73
2022/05/11 09:27:26;;;;;;;7.82;2.25;;;19.80;85.20;;;;;;4970437;28;20148;-73
2022/05/11 09:29:57;;;;;;;7.25;1.85;;;19.90;85.80;;;;;;4969341;28;20077;-73
2022/05/11 09:32:37;;;;;;;11.43;2.95;;;19.70;81.10;;;;;;4970252;28;20062;-72
2022/05/11 09:35:19;;;;;;;8.40;2.60;;;19.40;78.80;;;;;;4964878;28;20101;-72
2022/05/11 09:38:14;;;;;;;10.77;2.03;;;19.30;83.30;;;;;;4968148;28;20102;-73
2022/05/11 09:41:01;;;;;;;7.97;1.70;;;19.60;86.40;;;;;;4954850;28;20062;-73
2022/05/11 09:43:44;;;;;;;6.28;1.60;;;20.00;83.00;;;;;;4965702;28;20045;-72
2022/05/11 09:46:20;;;;;;;6.18;1.95;;;20.00;78.00;;;;;;4986224;28;20062;-72
2022/05/11 09:49:06;;;;;;;5.45;2.03;;;20.00;75.30;;;;;;4965668;28;20038;-73
2022/05/11 09:51:35;;;;;;;5.45;1.70;;;20.00;77.30;;;;;;4970667;28;20046;-72
2022/05/11 09:54:29;;;;;;;7.03;2.00;;;19.80;74.50;;;;;;4966918;28;20057;-72
2022/05/11 09:57:09;;;;;;;8.82;2.22;;;19.70;75.00;;;;;;4960969;28;20055;-72
2022/05/11 09:59:51;;;;;;;9.10;1.95;;;19.60;77.50;;;;;;4954028;28;20042;-72
2022/05/11 10:02:19;;;;;;;9.73;1.98;;;19.70;77.10;;;;;;4983410;28;20056;-73
2022/05/11 10:05:02;;;;;;;11.38;2.08;;;19.70;77.70;;;;;;4959750;28;20043;-73
2022/05/11 10:07:36;;;;;;;9.25;1.65;;;19.70;79.60;;;;;;4972979;28;20042;-73
2022/05/11 10:10:09;;;;;;;6.03;2.20;;;20.10;79.90;;;;;;4967897;28;20079;-73
2022/05/11 10:12:38;;;;;;;7.95;1.90;;;20.40;78.10;;;;;;4966817;28;20046;-73
2022/05/11 10:23:52;;;;;;;5.53;1.40;;;21.20;71.70;;;;;;4964941;28;20070;-73
2022/05/11 10:26:35;;;;;;;6.53;1.30;;;20.80;64.30;;;;;;4969170;28;20133;-73
2022/05/11 10:29:07;;;;;;;;;;;21.00;64.20;;;;;;4968436;28;20066;-73
2022/05/11 10:32:01;;;;;;;7.82;1.33;;;20.80;58.80;;;;;;4968651;28;20296;-73
2022/05/11 10:34:33;;;;;;;5.32;1.30;;;20.60;60.90;;;;;;4952097;28;20054;-73
2022/05/11 10:37:19;;;;;;;5.80;1.33;;;20.90;62.30;;;;;;4969147;28;20134;-73
2022/05/11 10:40:23;;;;;;;3.97;1.40;;;21.10;61.80;;;;;;4969753;28;20086;-73
2022/05/11 10:43:12;;;;;;;8.52;1.85;;;21.40;63.40;;;;;;4906705;28;20061;-72
2022/05/11 10:45:53;;;;;;;6.82;1.45;;;21.60;60.30;;;;;;4967167;28;20039;-72
2022/05/11 10:48:47;;;;;;;4.95;1.17;;;21.80;58.80;;;;;;4968733;28;20077;-72
2022/05/11 10:51:21;;;;;;;6.75;1.48;;;21.90;58.40;;;;;;4963707;28;20047;-72
2022/05/11 10:54:25;;;;;;;8.70;1.65;;;21.90;58.10;;;;;;4966381;28;20101;-72
2022/05/11 10:57:07;;;;;;;10.98;1.73;;;21.80;57.70;;;;;;4949138;28;20055;-72
2022/05/11 10:59:36;;;;;;;8.47;1.50;;;21.20;60.00;;;;;;4970794;28;20045;-72
2022/05/11 11:02:23;;;;;;;7.80;1.92;;;21.50;60.70;;;;;;4967916;28;20310;-73
2022/05/11 11:05:15;;;;;;;7.20;1.75;;;21.80;63.70;;;;;;4964561;28;20130;-72
2022/05/11 11:08:08;;;;;;;5.65;1.95;;;22.10;62.70;;;;;;4964422;28;20051;-72
2022/05/11 11:10:52;;;;;;;;;;;22.40;63.10;;;;;;4970760;28;20043;-72
2022/05/11 11:13:30;;;;;;;9.85;1.98;;;22.60;61.90;;;;;;4984412;28;19948;-73
2022/05/11 11:15:57;;;;;;;4.95;1.67;;;22.80;59.90;;;;;;4970063;28;20077;-73
2022/05/11 11:18:30;;;;;;;12.27;1.58;;;22.80;57.70;;;;;;4969678;28;20038;-72
2022/05/11 11:21:01;;;;;;;8.45;2.08;;;22.70;57.60;;;;;;4981423;28;20098;-72
2022/05/11 11:23:32;;;;;;;8.13;1.67;;;22.40;58.30;;;;;;4971053;28;20035;-72
2022/05/11 11:26:01;;;;;;;8.68;2.20;;;22.50;61.30;;;;;;4965145;28;20043;-73
2022/05/11 11:28:40;;;;;;;9.57;2.03;;;22.70;60.20;;;;;;4966910;28;20159;-72
2022/05/11 11:31:13;;;;;;;8.52;1.92;;;22.90;62.70;;;;;;4969473;28;20093;-72
2022/05/11 11:34:09;;;;;;;9.98;2.38;;;23.10;62.20;;;;;;4970127;28;20044;-72
2022/05/11 11:36:40;;;;;;;7.03;2.13;;;23.20;61.30;;;;;;4935997;28;20051;-72
2022/05/11 11:39:10;;;;;;;11.93;2.50;;;23.30;59.60;;;;;;4970388;28;20054;-72
2022/05/11 11:41:41;;;;;;;8.43;2.13;;;23.00;60.30;;;;;;4974133;28;20047;-72
2022/05/11 11:44:30;;;;;;;9.80;2.38;;;23.30;60.70;;;;;;4972407;28;20039;-72
2022/05/11 11:46:58;;;;;;;8.13;1.83;;;23.40;59.70;;;;;;4974490;28;20042;-72
2022/05/11 11:49:27;;;;;;;7.38;2.10;;;23.30;59.20;;;;;;4970890;28;20038;-72
2022/05/11 11:51:56;;;;;;;13.85;2.42;;;22.90;58.10;;;;;;4971948;28;20047;-72
2022/05/11 11:54:37;;;;;;;8.18;1.77;;;23.00;58.30;;;;;;4975801;28;20080;-71
2022/05/11 11:57:06;;;;;;;7.43;1.95;;;22.80;56.80;;;;;;4973266;28;20039;-72
2022/05/11 11:59:42;;;;;;;7.78;1.80;;;22.70;59.00;;;;;;4978551;28;20054;-72
2022/05/11 12:02:16;;;;;;;10.88;2.15;;;23.10;61.30;;;;;;4969501;28;20046;-72
2022/05/11 12:05:07;;;;;;;8.48;2.17;;;23.30;58.00;;;;;;4969596;28;20043;-72
2022/05/11 12:16:14;;;;;;;8.65;1.77;;;22.80;56.00;;;;;;4970574;28;20154;-72
2022/05/11 12:18:43;;;;;;;11.18;2.38;;;23.10;55.20;;;;;;4970621;28;20046;-72
2022/05/11 12:21:24;;;;;;;7.57;2.28;;;23.00;55.50;;;;;;4986605;28;20053;-72
2022/05/11 12:23:51;;;;;;;11.50;2.28;;;22.90;57.40;;;;;;4972476;28;20095;-72
2022/05/11 12:26:33;;;;;;;10.55;2.30;;;22.80;57.30;;;;;;4974128;28;20031;-73
2022/05/11 12:31:56;;;;;;;14.27;2.70;;;22.90;55.60;;;;;;4975035;28;20062;-72
2022/05/11 12:34:23;;;;;;;11.65;2.58;;;22.90;57.60;;;;;;4975543;28;20066;-72
2022/05/11 12:36:51;;;;;;;8.27;2.35;;;22.80;58.70;;;;;;4972991;28;20039;-72
2022/05/11 12:39:33;;;;;;;10.73;2.65;;;23.00;58.20;;;;;;4974585;28;20049;-72
2022/05/11 12:41:59;;;;;;;;;;;22.80;57.00;;;;;;4959541;28;20035;-73
2022/05/11 12:44:30;;;;;;;11.40;2.35;;;23.10;58.80;;;;;;4975186;28;20403;-72
2022/05/11 12:46:59;;;;;;;12.55;2.50;;;23.30;57.30;;;;;;4975060;28;20038;-72
2022/05/11 12:49:26;;;;;;;7.43;1.90;;;23.40;56.90;;;;;;4970547;28;20093;-72
2022/05/11 12:52:00;;;;;;;11.00;2.58;;;23.10;51.60;;;;;;4958963;28;20401;-72
2022/05/11 12:54:28;;;;;;;8.95;2.00;;;22.80;54.30;;;;;;4970708;28;20101;-72
2022/05/11 12:57:02;;;;;;;11.63;2.53;;;22.90;55.80;;;;;;4959767;28;20046;-73
2022/05/11 12:59:32;;;;;;;12.40;2.40;;;23.30;57.90;;;;;;4964348;28;20053;-73
2022/05/11 13:02:17;;;;;;;9.20;2.25;;;23.40;56.00;;;;;;4958094;28;20062;-72
2022/05/11 13:04:51;;;;;;;10.98;2.53;;;23.60;55.80;;;;;;4973514;28;20047;-72
2022/05/11 13:07:22;;;;;;;9.63;2.30;;;23.70;55.50;;;;;;4985044;28;20065;-73
2022/05/11 13:09:52;;;;;;;12.25;2.70;;;23.80;53.90;;;;;;4976057;28;20030;-72
2022/05/11 13:12:18;;;;;;;10.00;2.50;;;23.70;57.10;;;;;;4974976;28;20400;-73
2022/05/11 13:14:51;;;;;;;9.43;2.13;;;23.80;56.20;;;;;;4972603;28;20047;-73
2022/05/11 13:17:25;;;;;;;10.85;2.47;;;24.00;53.10;;;;;;4955623;28;20157;-73
2022/05/11 13:19:58;;;;;;;12.13;2.53;;;23.90;53.30;;;;;;4970930;28;20071;-73
2022/05/11 13:22:25;;;;;;;10.82;2.80;;;23.90;54.20;;;;;;4975798;28;20650;-72
2022/05/11 13:24:54;;;;;;;12.45;2.70;;;23.70;54.50;;;;;;4973023;28;20535;-73
2022/05/11 13:27:35;;;;;;;9.55;2.25;;;23.70;56.20;;;;;;4972949;28;20046;-73
2022/05/11 13:30:18;;;;;;;12.82;2.80;;;23.70;59.50;;;;;;4953877;28;20388;-72
2022/05/11 13:32:51;;;;;;;11.65;2.55;;;24.00;57.50;;;;;;4973975;28;20693;-73
2022/05/11 13:35:22;;;;;;;10.88;2.70;;;24.00;54.80;;;;;;4986094;28;20045;-73
2022/05/11 13:38:09;;;;;;;11.65;2.75;;;23.80;55.80;;;;;;4972541;28;20054;-72
2022/05/11 13:41:03;;;;;;;11.35;3.00;;;23.70;59.50;;;;;;4968821;28;20751;-72
2022/05/11 13:43:31;;;;;;;11.20;2.80;;;24.00;57.50;;;;;;4968723;28;20045;-72
2022/05/11 13:46:10;;;;;;;13.82;2.92;;;23.90;53.50;;;;;;4973167;28;20428;-73
2022/05/11 13:48:36;;;;;;;9.77;2.55;;;23.80;56.10;;;;;;4972326;28;20129;-73